createdAt,value
2018-05-17T00:02:00.097Z,10.47
2018-05-17T00:04:32.624Z,10.47
2018-05-17T00:07:05.104Z,11.80
2018-05-17T00:09:37.711Z,10.87
2018-05-17T00:12:10.191Z,10.40
2018-05-17T00:14:42.647Z,10.97
2018-05-17T00:17:15.149Z,11.30
2018-05-17T00:19:47.821Z,9.17
2018-05-17T00:22:20.478Z,10.07
2018-05-17T00:24:52.943Z,10.10
2018-05-17T00:27:25.297Z,9.00
2018-05-17T00:29:57.722Z,8.87
2018-05-17T00:32:30.359Z,9.70
2018-05-17T00:35:03.582Z,9.57
2018-05-17T00:37:36.841Z,8.80
2018-05-17T00:40:09.673Z,9.23
2018-05-17T00:42:42.302Z,8.20
2018-05-17T00:45:14.913Z,8.10
2018-05-17T00:47:47.259Z,7.00
2018-05-17T00:50:19.972Z,8.07
2018-05-17T00:53:06.383Z,7.17
2018-05-17T00:55:39.678Z,6.67
2018-05-17T00:58:12.053Z,7.90
2018-05-17T01:00:45.432Z,8.00
2018-05-17T01:03:18.030Z,7.23
2018-05-17T01:05:50.759Z,6.47
2018-05-17T01:08:23.264Z,7.30
2018-05-17T01:10:56.831Z,6.77
2018-05-17T01:13:30.046Z,7.37
2018-05-17T01:16:03.404Z,7.40
2018-05-17T01:18:36.609Z,6.77
2018-05-17T01:21:09.095Z,7.13
2018-05-17T01:23:41.509Z,7.60
2018-05-17T01:26:14.909Z,7.30
2018-05-17T01:28:47.516Z,7.00
2018-05-17T01:31:20.012Z,7.53
2018-05-17T01:33:52.425Z,6.43
2018-05-17T01:36:25.546Z,7.17
2018-05-17T01:38:58.031Z,7.37
2018-05-17T01:41:30.893Z,7.50
2018-05-17T01:44:03.491Z,7.20
2018-05-17T01:46:35.938Z,6.73
2018-05-17T01:49:09.099Z,7.03
2018-05-17T01:51:41.730Z,6.80
2018-05-17T01:54:14.323Z,7.17
2018-05-17T01:56:47.544Z,6.37
2018-05-17T01:59:20.032Z,7.93
2018-05-17T02:01:52.651Z,7.63
2018-05-17T02:04:25.209Z,7.97
2018-05-17T02:06:57.788Z,8.30
2018-05-17T02:09:30.578Z,8.63
2018-05-17T02:12:02.992Z,7.23
2018-05-17T02:14:35.926Z,6.53
2018-05-17T02:17:08.322Z,8.40
2018-05-17T02:19:41.604Z,7.57
2018-05-17T02:22:14.234Z,7.50
2018-05-17T02:24:47.522Z,7.63
2018-05-17T02:27:20.029Z,7.90
2018-05-17T02:29:53.417Z,7.43
2018-05-17T02:32:26.007Z,7.70
2018-05-17T02:34:58.662Z,7.03
2018-05-17T02:37:31.326Z,6.73
2018-05-17T02:40:03.947Z,8.50
2018-05-17T02:42:37.319Z,6.63
2018-05-17T02:45:10.272Z,7.00
2018-05-17T02:47:43.517Z,8.40
2018-05-17T02:50:15.885Z,7.67
2018-05-17T02:52:49.229Z,7.53
2018-05-17T02:55:21.948Z,7.10
2018-05-17T02:57:54.458Z,7.73
2018-05-17T03:00:26.853Z,8.30
2018-05-17T03:02:59.281Z,7.57
2018-05-17T03:05:31.852Z,8.17
2018-05-17T03:08:04.429Z,7.10
2018-05-17T03:10:37.555Z,6.73
2018-05-17T03:13:10.789Z,6.60
2018-05-17T03:15:44.176Z,8.20
2018-05-17T03:18:16.562Z,7.37
2018-05-17T03:20:49.611Z,7.23
2018-05-17T03:23:23.599Z,7.17
2018-05-17T03:25:56.725Z,7.30
2018-05-17T03:28:29.909Z,7.87
2018-05-17T03:31:03.078Z,7.67
2018-05-17T03:33:35.522Z,6.80
2018-05-17T03:36:08.110Z,6.80
2018-05-17T03:38:41.371Z,8.20
2018-05-17T03:41:13.906Z,7.63
2018-05-17T03:43:46.326Z,8.23
2018-05-17T03:46:18.697Z,7.53
2018-05-17T03:48:51.892Z,7.47
2018-05-17T03:51:25.010Z,7.57
2018-05-17T03:53:58.900Z,7.07
2018-05-17T03:56:31.373Z,7.83
2018-05-17T03:59:03.899Z,6.97
2018-05-17T04:01:48.744Z,6.93
2018-05-17T04:04:33.577Z,6.97
2018-05-17T04:07:06.210Z,7.30
2018-05-17T04:09:38.792Z,6.60
2018-05-17T04:12:12.173Z,6.60
2018-05-17T04:14:45.802Z,7.77
2018-05-17T04:17:19.719Z,7.13
2018-05-17T04:19:52.167Z,7.03
2018-05-17T04:22:25.479Z,6.90
2018-05-17T04:24:57.827Z,7.27
2018-05-17T04:27:30.435Z,7.27
2018-05-17T04:30:02.927Z,7.30
2018-05-17T04:32:35.298Z,7.07
2018-05-17T04:35:07.833Z,7.77
2018-05-17T04:37:40.464Z,7.27
2018-05-17T04:40:12.869Z,8.30
2018-05-17T04:42:45.321Z,7.10
2018-05-17T04:45:18.223Z,7.93
2018-05-17T04:47:51.133Z,8.13
2018-05-17T04:50:25.423Z,7.53
2018-05-17T04:52:58.033Z,7.43
2018-05-17T04:55:30.668Z,8.73
2018-05-17T04:58:03.229Z,7.93
2018-05-17T05:00:35.643Z,8.67
2018-05-17T05:03:08.177Z,8.23
2018-05-17T05:05:41.640Z,8.23
2018-05-17T05:08:14.569Z,7.47
2018-05-17T05:10:47.054Z,7.70
2018-05-17T05:13:20.135Z,8.00
2018-05-17T05:15:52.637Z,8.87
2018-05-17T05:18:25.193Z,8.13
2018-05-17T05:20:57.977Z,8.20
2018-05-17T05:23:30.541Z,8.20
2018-05-17T05:26:03.713Z,8.53
2018-05-17T05:28:36.097Z,7.67
2018-05-17T05:31:08.773Z,8.40
2018-05-17T05:33:41.239Z,8.17
2018-05-17T05:36:13.673Z,7.47
2018-05-17T05:38:46.117Z,12.23
2018-05-17T05:41:19.341Z,8.97
2018-05-17T05:43:52.729Z,8.47
2018-05-17T05:46:25.562Z,8.13
2018-05-17T05:48:58.294Z,7.70
2018-05-17T05:51:31.628Z,8.30
2018-05-17T05:54:05.825Z,8.00
2018-05-17T05:56:39.301Z,8.83
2018-05-17T05:59:11.824Z,7.97
2018-05-17T06:01:44.147Z,7.90
2018-05-17T06:04:16.584Z,8.43
2018-05-17T06:06:50.488Z,8.13
2018-05-17T06:09:22.892Z,8.60
2018-05-17T06:11:55.357Z,7.60
2018-05-17T06:14:28.599Z,8.27
2018-05-17T06:17:01.110Z,8.83
2018-05-17T06:19:33.773Z,7.80
2018-05-17T06:22:06.282Z,7.97
2018-05-17T06:24:39.575Z,7.60
2018-05-17T06:27:12.152Z,7.17
2018-05-17T06:29:44.762Z,6.77
2018-05-17T06:32:17.381Z,8.03
2018-05-17T06:34:49.824Z,8.37
2018-05-17T06:37:22.188Z,7.33
2018-05-17T06:39:54.711Z,8.30
2018-05-17T06:42:28.207Z,7.50
2018-05-17T06:45:00.847Z,8.10
2018-05-17T06:47:34.090Z,9.30
2018-05-17T06:50:08.394Z,8.73
2018-05-17T06:52:41.007Z,9.40
2018-05-17T06:55:13.723Z,8.80
2018-05-17T06:57:46.418Z,8.47
2018-05-17T07:00:19.225Z,8.83
2018-05-17T07:02:51.834Z,8.97
2018-05-17T07:05:24.383Z,9.90
2018-05-17T07:07:56.807Z,8.90
2018-05-17T07:10:30.188Z,8.10
2018-05-17T07:13:02.866Z,9.40
2018-05-17T07:15:36.263Z,8.07
2018-05-17T07:18:09.150Z,8.63
2018-05-17T07:20:42.182Z,8.03
2018-05-17T07:23:14.723Z,9.60
2018-05-17T07:25:47.517Z,8.43
2018-05-17T07:28:20.320Z,9.77
2018-05-17T07:30:52.825Z,8.83
2018-05-17T07:33:25.618Z,7.33
2018-05-17T07:35:58.124Z,5.90
2018-05-17T07:38:30.813Z,7.17
2018-05-17T07:41:03.635Z,7.07
2018-05-17T07:43:36.530Z,7.20
2018-05-17T07:46:09.288Z,8.40
2018-05-17T07:48:42.528Z,8.00
2018-05-17T07:51:15.200Z,8.43
2018-05-17T07:53:47.680Z,7.50
2018-05-17T07:56:20.207Z,7.80
2018-05-17T07:58:53.619Z,6.53
2018-05-17T08:01:33.126Z,7.33
2018-05-17T08:04:05.666Z,7.27
2018-05-17T08:06:38.495Z,7.20
2018-05-17T08:09:12.028Z,6.87
2018-05-17T08:11:44.703Z,6.50
2018-05-17T08:14:18.853Z,5.70
2018-05-17T08:16:51.401Z,5.90
2018-05-17T08:19:24.097Z,6.30
2018-05-17T08:21:57.383Z,5.57
2018-05-17T08:24:33.986Z,5.93
2018-05-17T08:27:07.252Z,7.27
2018-05-17T08:29:40.109Z,5.93
2018-05-17T08:32:12.664Z,6.97
2018-05-17T08:34:45.846Z,7.03
2018-05-17T08:37:18.554Z,6.90
2018-05-17T08:39:51.034Z,5.70
2018-05-17T08:42:23.886Z,6.97
2018-05-17T08:44:56.650Z,6.00
2018-05-17T08:47:29.510Z,6.83
2018-05-17T08:50:02.049Z,6.07
2018-05-17T08:52:34.547Z,5.90
2018-05-17T08:55:07.279Z,6.30
2018-05-17T08:57:39.697Z,5.97
2018-05-17T09:00:12.243Z,5.80
2018-05-17T09:02:44.887Z,7.67
2018-05-17T09:05:17.565Z,6.13
2018-05-17T09:07:50.358Z,7.03
2018-05-17T09:10:23.734Z,6.27
2018-05-17T09:12:56.409Z,6.53
2018-05-17T09:15:29.647Z,6.17
2018-05-17T09:18:02.180Z,7.00
2018-05-17T09:20:34.732Z,7.10
2018-05-17T09:23:07.314Z,6.13
2018-05-17T09:25:39.813Z,7.53
2018-05-17T09:28:12.541Z,6.73
2018-05-17T09:30:45.112Z,6.20
2018-05-17T09:33:17.624Z,5.93
2018-05-17T09:35:50.172Z,6.77
2018-05-17T09:38:22.498Z,7.07
2018-05-17T09:40:55.341Z,6.20
2018-05-17T09:43:27.894Z,6.13
2018-05-17T09:46:00.581Z,6.30
2018-05-17T09:48:33.306Z,6.47
2018-05-17T09:51:06.684Z,5.33
2018-05-17T09:53:39.858Z,6.10
2018-05-17T09:56:12.565Z,6.47
2018-05-17T09:58:45.749Z,6.17
2018-05-17T10:01:18.118Z,7.10
2018-05-17T10:03:50.493Z,6.70
2018-05-17T10:06:22.913Z,6.57
2018-05-17T10:08:56.172Z,6.77
2018-05-17T10:11:29.623Z,6.60
2018-05-17T10:14:02.073Z,6.17
2018-05-17T10:16:34.800Z,6.70
2018-05-17T10:19:07.251Z,5.97
2018-05-17T10:21:40.684Z,6.23
2018-05-17T10:24:13.467Z,6.80
2018-05-17T10:26:46.667Z,5.97
2018-05-17T10:29:19.340Z,6.73
2018-05-17T10:31:51.935Z,6.90
2018-05-17T10:34:24.336Z,7.50
2018-05-17T10:36:57.278Z,6.47
2018-05-17T10:39:29.662Z,7.23
2018-05-17T10:42:02.973Z,6.83
2018-05-17T10:44:35.535Z,7.53
2018-05-17T10:47:08.125Z,7.10
2018-05-17T10:49:41.369Z,7.07
2018-05-17T10:52:17.466Z,8.20
2018-05-17T10:54:50.134Z,6.83
2018-05-17T10:57:22.957Z,7.90
2018-05-17T10:59:55.498Z,6.50
2018-05-17T11:02:28.013Z,6.37
2018-05-17T11:05:01.271Z,6.67
2018-05-17T11:07:33.693Z,7.50
2018-05-17T11:10:06.425Z,7.03
2018-05-17T11:12:39.186Z,6.47
2018-05-17T11:15:11.868Z,6.63
2018-05-17T11:17:44.425Z,7.90
2018-05-17T11:20:17.102Z,7.03
2018-05-17T11:22:50.566Z,7.50
2018-05-17T11:25:23.182Z,7.43
2018-05-17T11:27:56.724Z,7.60
2018-05-17T11:30:29.248Z,7.97
2018-05-17T11:33:02.872Z,9.17
2018-05-17T11:35:35.481Z,8.50
2018-05-17T11:38:08.428Z,9.37
2018-05-17T11:40:40.991Z,8.17
2018-05-17T11:43:13.683Z,8.23
2018-05-17T11:45:46.416Z,9.00
2018-05-17T11:48:19.718Z,8.27
2018-05-17T11:50:52.679Z,8.33
2018-05-17T11:53:25.161Z,7.80
2018-05-17T11:55:57.771Z,7.57
2018-05-17T11:58:31.300Z,7.07
2018-05-17T12:01:03.780Z,8.07
2018-05-17T12:03:37.179Z,8.17
2018-05-17T12:06:09.580Z,7.50
2018-05-17T12:08:43.054Z,7.63
2018-05-17T12:11:16.236Z,7.13
2018-05-17T12:13:48.748Z,8.10
2018-05-17T12:16:21.174Z,8.03
2018-05-17T12:18:54.210Z,7.93
2018-05-17T12:21:26.622Z,7.13
2018-05-17T12:23:59.196Z,6.23
2018-05-17T12:26:31.726Z,6.30
2018-05-17T12:29:04.476Z,7.90
2018-05-17T12:31:37.002Z,7.43
2018-05-17T12:34:09.895Z,7.43
2018-05-17T12:36:42.515Z,8.23
2018-05-17T12:39:19.608Z,7.97
2018-05-17T12:41:52.069Z,7.30
2018-05-17T12:44:25.255Z,8.20
2018-05-17T12:46:57.659Z,7.47
2018-05-17T12:49:30.089Z,8.17
2018-05-17T12:52:02.773Z,7.27
2018-05-17T12:54:35.316Z,7.87
2018-05-17T12:57:07.899Z,7.03
2018-05-17T12:59:40.563Z,7.12
2018-05-17T13:02:13.249Z,6.90
2018-05-17T13:04:46.571Z,7.20
2018-05-17T13:07:19.894Z,6.53
2018-05-17T13:09:52.481Z,7.07
2018-05-17T13:12:25.097Z,7.95
2018-05-17T13:14:58.196Z,7.87
2018-05-17T13:17:30.683Z,7.30
2018-05-17T13:20:03.363Z,7.28
2018-05-17T13:22:36.223Z,7.20
2018-05-17T13:25:08.799Z,7.20
2018-05-17T13:27:41.735Z,7.43
2018-05-17T13:30:14.373Z,7.03
2018-05-17T13:32:47.021Z,6.95
2018-05-17T13:35:20.169Z,7.00
2018-05-17T13:37:52.724Z,6.90
2018-05-17T13:40:25.505Z,7.50
2018-05-17T13:42:58.189Z,7.07
2018-05-17T13:45:30.809Z,6.80
2018-05-17T13:48:03.815Z,6.50
2018-05-17T13:50:36.467Z,5.70
2018-05-17T13:53:08.995Z,6.45
2018-05-17T13:55:41.680Z,5.72
2018-05-17T13:58:14.349Z,5.75
2018-05-17T14:00:46.959Z,6.40
2018-05-17T14:03:19.615Z,6.65
2018-05-17T14:05:52.476Z,6.70
2018-05-17T14:08:25.138Z,6.20
2018-05-17T14:10:57.733Z,6.05
2018-05-17T14:13:30.312Z,5.87
2018-05-17T14:16:03.364Z,5.40
2018-05-17T14:18:35.953Z,6.10
2018-05-17T14:21:09.031Z,6.03
2018-05-17T14:23:41.590Z,5.20
2018-05-17T14:26:14.335Z,6.12
2018-05-17T14:28:47.097Z,6.03
2018-05-17T14:31:19.951Z,6.30
2018-05-17T14:33:52.645Z,6.50
2018-05-17T14:36:25.026Z,6.85
2018-05-17T14:38:57.501Z,6.43
2018-05-17T14:41:30.579Z,6.28
2018-05-17T14:44:03.305Z,7.03
2018-05-17T14:46:36.028Z,6.43
2018-05-17T14:49:09.449Z,6.20
2018-05-17T14:51:42.176Z,6.03
2018-05-17T14:54:14.713Z,7.00
2018-05-17T14:56:47.675Z,6.50
2018-05-17T14:59:20.348Z,6.12
2018-05-17T15:01:52.961Z,6.55
2018-05-17T15:04:25.726Z,6.53
2018-05-17T15:06:58.774Z,6.28
2018-05-17T15:09:31.269Z,6.25
2018-05-17T15:12:03.745Z,6.22
2018-05-17T15:14:36.580Z,6.12
2018-05-17T15:17:10.552Z,6.15
2018-05-17T15:19:43.238Z,7.78
2018-05-17T15:22:15.891Z,5.85
2018-05-17T15:24:49.275Z,6.45
2018-05-17T15:27:22.048Z,6.07
2018-05-17T15:29:55.225Z,5.47
2018-05-17T15:32:27.810Z,6.37
2018-05-17T15:35:00.360Z,6.43
2018-05-17T15:37:32.975Z,5.95
2018-05-17T15:40:06.221Z,6.20
2018-05-17T15:42:39.378Z,8.65
2018-05-17T15:45:13.747Z,7.75
2018-05-17T15:47:46.376Z,6.15
2018-05-17T15:50:18.756Z,5.93
2018-05-17T15:52:51.542Z,6.90
2018-05-17T15:55:24.333Z,6.57
2018-05-17T15:57:56.910Z,5.95
2018-05-17T16:00:29.673Z,6.55
2018-05-17T16:03:02.234Z,6.30
2018-05-17T16:05:35.476Z,6.47
2018-05-17T16:08:08.927Z,6.95
2018-05-17T16:10:41.425Z,6.12
2018-05-17T16:13:14.094Z,6.57
2018-05-17T16:15:46.794Z,5.78
2018-05-17T16:18:19.490Z,6.03
2018-05-17T16:20:52.827Z,5.12
2018-05-17T16:23:25.562Z,5.82
2018-05-17T16:25:58.174Z,5.65
2018-05-17T16:28:30.889Z,5.10
2018-05-17T16:31:03.689Z,5.55
2018-05-17T16:33:36.221Z,5.85
2018-05-17T16:36:08.856Z,6.07
2018-05-17T16:38:41.635Z,5.93
2018-05-17T16:41:15.799Z,5.82
2018-05-17T16:43:48.676Z,5.78
2018-05-17T16:46:21.422Z,4.62
2018-05-17T16:48:54.789Z,5.68
2018-05-17T16:51:28.362Z,5.18
2018-05-17T16:54:00.803Z,5.30
2018-05-17T16:56:33.434Z,6.82
2018-05-17T16:59:06.012Z,6.10
2018-05-17T17:01:38.798Z,5.45
2018-05-17T17:04:11.315Z,5.93
2018-05-17T17:06:43.899Z,6.90
2018-05-17T17:09:16.629Z,6.32
2018-05-17T17:11:50.226Z,6.53
2018-05-17T17:14:23.111Z,5.93
2018-05-17T17:16:55.785Z,6.30
2018-05-17T17:19:28.485Z,6.53
2018-05-17T17:22:01.086Z,6.57
2018-05-17T17:24:33.572Z,6.53
2018-05-17T17:27:06.322Z,6.73
2018-05-17T17:29:38.900Z,6.00
2018-05-17T17:32:11.622Z,6.40
2018-05-17T17:34:44.317Z,6.37
2018-05-17T17:37:16.956Z,6.97
2018-05-17T17:39:49.809Z,6.73
2018-05-17T17:42:22.522Z,6.07
2018-05-17T17:44:55.151Z,6.10
2018-05-17T17:47:27.965Z,7.33
2018-05-17T17:50:00.474Z,6.57
2018-05-17T17:52:33.304Z,6.30
2018-05-17T17:55:05.793Z,6.67
2018-05-17T17:57:38.443Z,6.80
2018-05-17T18:00:11.235Z,6.70
2018-05-17T18:02:43.886Z,6.70
2018-05-17T18:05:17.343Z,6.93
2018-05-17T18:07:50.126Z,6.63
2018-05-17T18:10:22.872Z,6.40
2018-05-17T18:12:55.505Z,6.47
2018-05-17T18:15:28.158Z,6.50
2018-05-17T18:18:00.849Z,5.97
2018-05-17T18:20:33.749Z,5.30
2018-05-17T18:23:06.544Z,5.57
2018-05-17T18:25:39.200Z,5.30
2018-05-17T18:28:11.993Z,5.97
2018-05-17T18:30:44.680Z,6.20
2018-05-17T18:33:17.973Z,6.33
2018-05-17T18:35:50.718Z,6.57
2018-05-17T18:38:23.592Z,6.43
2018-05-17T18:40:56.381Z,7.37
2018-05-17T18:43:29.230Z,6.57
2018-05-17T18:46:01.908Z,6.10
2018-05-17T18:48:35.358Z,6.03
2018-05-17T18:51:08.226Z,6.37
2018-05-17T18:53:40.999Z,6.37
2018-05-17T18:56:14.411Z,6.57
2018-05-17T18:58:47.383Z,6.23
2018-05-17T19:01:20.355Z,6.77
2018-05-17T19:03:53.192Z,6.70
2018-05-17T19:06:26.464Z,6.50
2018-05-17T19:08:59.738Z,6.03
2018-05-17T19:11:32.544Z,7.30
2018-05-17T19:14:05.552Z,7.00
2018-05-17T19:16:38.228Z,7.40
2018-05-17T19:19:10.966Z,6.77
2018-05-17T19:21:43.966Z,7.23
2018-05-17T19:24:17.311Z,7.40
2018-05-17T19:26:50.253Z,7.00
2018-05-17T19:29:23.135Z,7.27
2018-05-17T19:31:55.715Z,6.70
2018-05-17T19:34:28.559Z,7.70
2018-05-17T19:37:01.428Z,7.37
2018-05-17T19:39:34.454Z,7.60
2018-05-17T19:42:07.945Z,8.77
2018-05-17T19:44:40.592Z,8.07
2018-05-17T19:47:13.766Z,7.63
2018-05-17T19:49:46.522Z,7.37
2018-05-17T19:52:19.928Z,7.63
2018-05-17T19:54:53.461Z,7.83
2018-05-17T19:57:26.085Z,7.70
2018-05-17T19:59:58.734Z,7.20
2018-05-17T20:02:31.528Z,6.73
2018-05-17T20:05:05.185Z,8.23
2018-05-17T20:07:37.885Z,7.93
2018-05-17T20:10:12.027Z,6.80
2018-05-17T20:12:44.808Z,7.20
2018-05-17T20:15:17.570Z,8.33
2018-05-17T20:17:50.168Z,8.03
2018-05-17T20:20:23.073Z,8.47
2018-05-17T20:22:56.147Z,9.40
2018-05-17T20:25:29.129Z,8.37
2018-05-17T20:28:01.750Z,8.17
2018-05-17T20:30:34.619Z,8.53
2018-05-17T20:33:08.224Z,7.17
2018-05-17T20:35:40.781Z,7.97
2018-05-17T20:38:13.644Z,8.23
2018-05-17T20:40:47.284Z,8.17
2018-05-17T20:43:19.649Z,7.30
2018-05-17T20:45:52.584Z,7.37
2018-05-17T20:48:25.886Z,7.90
2018-05-17T20:50:58.540Z,7.93
2018-05-17T20:53:31.797Z,7.67
2018-05-17T20:56:04.260Z,8.33
2018-05-17T20:58:36.962Z,7.70
2018-05-17T21:01:09.735Z,7.70
2018-05-17T21:03:42.521Z,6.80
2018-05-17T21:06:15.469Z,7.60
2018-05-17T21:08:48.383Z,7.83
2018-05-17T21:11:21.042Z,7.20
2018-05-17T21:13:54.670Z,7.33
2018-05-17T21:16:28.073Z,7.20
2018-05-17T21:19:00.523Z,7.43
2018-05-17T21:21:33.161Z,7.53
2018-05-17T21:24:05.739Z,7.30
2018-05-17T21:26:38.569Z,6.60
2018-05-17T21:29:11.057Z,6.90
2018-05-17T21:31:44.468Z,7.00
2018-05-17T21:34:16.936Z,6.47
2018-05-17T21:36:50.535Z,7.70
2018-05-17T21:39:23.272Z,6.33
2018-05-17T21:41:57.959Z,6.03
2018-05-17T21:44:30.531Z,6.00
2018-05-17T21:47:03.108Z,6.00
2018-05-17T21:49:35.841Z,5.97
2018-05-17T21:52:08.445Z,6.47
2018-05-17T21:54:41.355Z,6.53
2018-05-17T21:57:15.119Z,6.17
2018-05-17T21:59:47.924Z,6.03
2018-05-17T22:02:20.560Z,6.57
2018-05-17T22:04:54.032Z,7.23
2018-05-17T22:07:27.546Z,6.90
2018-05-17T22:10:00.069Z,6.87
2018-05-17T22:12:32.744Z,6.23
2018-05-17T22:15:06.075Z,6.30
2018-05-17T22:17:38.498Z,7.17
2018-05-17T22:20:10.981Z,6.80
2018-05-17T22:22:43.738Z,7.10
2018-05-17T22:25:16.234Z,6.57
2018-05-17T22:27:48.801Z,6.77
2018-05-17T22:30:21.210Z,7.57
2018-05-17T22:32:53.889Z,6.80
2018-05-17T22:35:26.606Z,6.67
2018-05-17T22:37:59.054Z,6.80
2018-05-17T22:40:31.797Z,6.00
2018-05-17T22:43:04.382Z,7.13
2018-05-17T22:45:37.042Z,7.23
2018-05-17T22:48:09.609Z,6.80
2018-05-17T22:50:41.969Z,6.73
2018-05-17T22:53:14.375Z,7.40
2018-05-17T22:55:46.780Z,7.67
2018-05-17T22:58:32.393Z,7.00
2018-05-17T23:01:04.971Z,7.40
2018-05-17T23:03:37.731Z,6.97
2018-05-17T23:06:10.485Z,6.40
2018-05-17T23:08:43.156Z,6.80
2018-05-17T23:11:15.650Z,6.53
2018-05-17T23:13:48.539Z,6.63
2018-05-17T23:16:21.665Z,6.40
2018-05-17T23:18:54.136Z,7.40
2018-05-17T23:21:27.302Z,7.30
2018-05-17T23:23:59.735Z,6.90
2018-05-17T23:26:32.457Z,6.47
2018-05-17T23:29:05.036Z,6.53
2018-05-17T23:31:37.489Z,6.40
2018-05-17T23:34:09.956Z,6.87
2018-05-17T23:36:42.585Z,7.23
2018-05-17T23:39:14.993Z,6.00
2018-05-17T23:41:47.471Z,6.93
2018-05-17T23:44:20.289Z,6.73
2018-05-17T23:46:53.411Z,6.80
2018-05-17T23:49:26.301Z,7.17
2018-05-17T23:51:59.109Z,7.47
2018-05-17T23:54:31.674Z,7.77
2018-05-17T23:57:04.166Z,6.93
2018-05-17T23:59:37.147Z,7.67
